Time;durP1;ratioP1;P1;durP2;ratioP2;P2;SDS_P1;SDS_P2;PMS_P1;PMS_P2;Temp;Humidity;BMP_temperature;BMP_pressure;BME280_temperature;BME280_humidity;BME280_pressure;Samples;Min_cycle;Max_cycle;Signal;HPM_P1;HPM_P2
2023/08/12 00:00:19;;;;;;;21.02;11.98;;;17.50;99.90;;;;;;5074755;28;20056;-26
2023/08/12 00:02:46;;;;;;;19.75;11.23;;;17.40;99.90;;;;;;5055210;28;20560;-26
2023/08/12 00:05:12;;;;;;;17.52;10.82;;;17.40;99.90;;;;;;5053517;28;20040;-26
2023/08/12 00:07:42;;;;;;;19.85;11.43;;;17.40;99.90;;;;;;5055204;28;20052;-27
2023/08/12 00:10:10;;;;;;;24.63;12.38;;;17.40;99.90;;;;;;5053644;28;20057;-27
2023/08/12 00:12:37;;;;;;;17.35;11.52;;;17.40;99.90;;;;;;5066333;28;20066;-26
2023/08/12 00:15:06;;;;;;;15.95;10.38;;;17.40;99.90;;;;;;5074154;28;20051;-26
2023/08/12 00:17:32;;;;;;;18.55;10.98;;;17.40;99.90;;;;;;5074394;28;20040;-26
2023/08/12 00:19:58;;;;;;;22.63;11.18;;;17.40;99.90;;;;;;5074381;28;20070;-27
2023/08/12 00:22:24;;;;;;;18.08;10.45;;;17.40;99.90;;;;;;5066881;28;20048;-26
2023/08/12 00:24:50;;;;;;;17.33;11.10;;;17.40;99.90;;;;;;5053799;28;20051;-26
2023/08/12 00:27:16;;;;;;;21.55;9.57;;;17.40;99.90;;;;;;5054268;28;20056;-26
2023/08/12 00:29:42;;;;;;;16.58;9.50;;;17.40;99.90;;;;;;5054501;28;20052;-26
2023/08/12 00:32:09;;;;;;;13.80;9.05;;;17.40;99.90;;;;;;5052622;28;20048;-24
2023/08/12 00:34:35;;;;;;;14.52;8.68;;;17.40;99.90;;;;;;5073780;28;20119;-27
2023/08/12 00:37:00;;;;;;;20.05;9.70;;;17.40;99.90;;;;;;5074378;28;20076;-26
2023/08/12 00:39:26;;;;;;;16.90;8.48;;;17.40;99.90;;;;;;5072910;28;20044;-26
2023/08/12 00:41:52;;;;;;;19.83;9.45;;;17.40;99.90;;;;;;5073608;28;20471;-26
2023/08/12 00:44:18;;;;;;;15.57;8.50;;;17.40;99.90;;;;;;5058591;28;20068;-26
2023/08/12 00:46:44;;;;;;;11.20;7.15;;;17.40;99.90;;;;;;5053772;28;20387;-26
2023/08/12 00:49:11;;;;;;;13.60;7.85;;;17.40;99.90;;;;;;5053925;28;20048;-27
2023/08/12 00:51:42;;;;;;;13.00;7.30;;;17.40;99.90;;;;;;5053895;28;20053;-26
2023/08/12 00:54:11;;;;;;;12.65;8.15;;;17.40;99.90;;;;;;5061303;28;20051;-26
2023/08/12 00:56:37;;;;;;;11.77;7.20;;;17.50;99.90;;;;;;5073820;28;20105;-26
2023/08/12 00:59:06;;;;;;;12.85;7.50;;;17.40;99.90;;;;;;5072930;28;20055;-26
2023/08/12 01:01:31;;;;;;;17.38;7.80;;;17.40;99.90;;;;;;5074040;28;20067;-26
2023/08/12 01:03:57;;;;;;;13.35;6.97;;;17.40;99.90;;;;;;5071527;28;20478;-26
2023/08/12 01:06:24;;;;;;;11.95;6.75;;;17.40;99.90;;;;;;5065269;28;20045;-26
2023/08/12 01:08:50;;;;;;;10.82;6.57;;;17.40;99.90;;;;;;5053649;28;20501;-27
2023/08/12 01:11:26;;;;;;;13.93;6.72;;;17.40;99.90;;;;;;5052455;28;20047;-26
2023/08/12 01:14:25;;;;;;;11.18;7.22;;;17.30;99.90;;;;;;5052946;28;20444;-26
2023/08/12 01:17:03;;;;;;;12.35;6.78;;;17.40;99.90;;;;;;5053486;28;20056;-27
2023/08/12 01:19:40;;;;;;;12.30;7.18;;;17.30;99.90;;;;;;5052899;28;20063;-26
2023/08/12 01:22:11;;;;;;;14.10;7.13;;;17.30;99.90;;;;;;5052553;28;20048;-26
2023/08/12 01:24:42;;;;;;;14.98;6.72;;;17.30;99.90;;;;;;5052426;28;20483;-26
2023/08/12 01:27:09;;;;;;;13.50;7.32;;;17.30;99.90;;;;;;5070966;28;20047;-26
2023/08/12 01:29:41;;;;;;;14.70;7.03;;;17.30;99.90;;;;;;5072547;28;20044;-26
2023/08/12 01:32:28;;;;;;;9.50;6.45;;;17.20;99.90;;;;;;5073447;28;20501;-26
2023/08/12 01:35:05;;;;;;;17.35;7.00;;;17.20;99.90;;;;;;5072314;28;20041;-26
2023/08/12 01:37:32;;;;;;;11.50;6.25;;;17.10;99.90;;;;;;5057123;28;20415;-26
2023/08/12 01:40:00;;;;;;;13.75;6.63;;;17.00;99.90;;;;;;5052087;28;20102;-26
2023/08/12 01:42:27;;;;;;;14.55;6.30;;;17.00;99.90;;;;;;5053900;28;20055;-26
2023/08/12 01:44:53;;;;;;;12.88;8.10;;;17.00;99.90;;;;;;5053274;28;20045;-26
2023/08/12 01:47:19;;;;;;;10.82;6.45;;;16.90;99.90;;;;;;5061813;28;20086;-26
2023/08/12 01:49:45;;;;;;;10.35;6.10;;;16.80;99.90;;;;;;5073314;28;20132;-26
2023/08/12 01:52:11;;;;;;;12.32;7.22;;;16.90;99.90;;;;;;5073587;28;20076;-26
2023/08/12 01:54:36;;;;;;;22.90;8.20;;;16.80;99.90;;;;;;5073275;28;20521;-26
2023/08/12 01:57:05;;;;;;;11.40;6.68;;;16.80;99.90;;;;;;5070229;28;21210;-24
2023/08/12 01:59:32;;;;;;;18.73;7.88;;;16.80;99.90;;;;;;5052472;28;20583;-26
2023/08/12 02:01:58;;;;;;;12.95;7.10;;;16.70;99.90;;;;;;5052705;28;20052;-26
2023/08/12 02:04:23;;;;;;;17.30;7.32;;;16.70;99.90;;;;;;5051896;28;20041;-26
2023/08/12 02:06:49;;;;;;;17.83;7.75;;;16.70;99.90;;;;;;5035333;28;20049;-26
2023/08/12 02:09:15;;;;;;;16.40;8.13;;;16.70;99.90;;;;;;5052691;28;20128;-26
2023/08/12 02:11:41;;;;;;;15.20;7.32;;;16.70;99.90;;;;;;5056039;28;20099;-26
2023/08/12 02:14:07;;;;;;;16.02;8.18;;;16.70;99.90;;;;;;5055656;28;20053;-26
2023/08/12 02:16:32;;;;;;;16.50;7.85;;;16.70;99.90;;;;;;5057063;28;20084;-26
2023/08/12 02:18:58;;;;;;;18.55;8.43;;;16.70;99.90;;;;;;5055773;28;20053;-26
2023/08/12 02:21:24;;;;;;;15.93;8.23;;;16.60;99.90;;;;;;5056717;28;20059;-26
2023/08/12 02:23:49;;;;;;;12.48;7.00;;;16.70;99.90;;;;;;5056717;28;20463;-26
2023/08/12 02:26:15;;;;;;;17.05;7.47;;;16.70;99.90;;;;;;5056094;28;20041;-26
2023/08/12 02:28:41;;;;;;;13.43;6.97;;;16.70;99.90;;;;;;5057030;28;20049;-25
2023/08/12 02:31:07;;;;;;;15.48;6.50;;;16.60;99.90;;;;;;5075334;28;20044;-26
2023/08/12 02:33:33;;;;;;;17.33;7.70;;;16.60;99.90;;;;;;5076272;28;20048;-26
2023/08/12 02:35:58;;;;;;;17.58;7.70;;;16.50;99.90;;;;;;5076287;28;20434;-26
2023/08/12 02:38:24;;;;;;;15.07;7.80;;;16.60;99.90;;;;;;5076028;28;20121;-26
2023/08/12 02:40:50;;;;;;;16.15;7.55;;;16.60;99.90;;;;;;5074603;28;20512;-26
2023/08/12 02:43:17;;;;;;;10.48;6.55;;;16.60;99.90;;;;;;5076291;28;20052;-26
2023/08/12 02:45:43;;;;;;;18.95;7.32;;;16.70;99.90;;;;;;5076529;28;20109;-26
2023/08/12 02:48:10;;;;;;;16.05;8.18;;;16.70;99.90;;;;;;5076099;28;20546;-26
2023/08/12 02:50:36;;;;;;;16.67;8.48;;;16.80;99.90;;;;;;5066594;28;20138;-26
2023/08/12 02:53:02;;;;;;;21.67;9.43;;;16.90;99.90;;;;;;5056654;28;20056;-26
2023/08/12 02:55:28;;;;;;;18.05;8.48;;;16.90;99.90;;;;;;5056097;28;20063;-26
2023/08/12 02:57:55;;;;;;;18.33;8.00;;;17.10;99.90;;;;;;5056036;28;20479;-26
2023/08/12 03:00:21;;;;;;;16.90;8.88;;;17.10;99.90;;;;;;5055112;28;20398;-24
2023/08/12 03:02:47;;;;;;;19.02;9.15;;;17.00;99.90;;;;;;5055954;28;20044;-26
2023/08/12 03:05:13;;;;;;;15.27;9.15;;;17.10;99.90;;;;;;5055558;28;20505;-26
2023/08/12 03:07:38;;;;;;;18.77;8.75;;;17.00;99.90;;;;;;5055815;28;20057;-26
2023/08/12 03:10:05;;;;;;;16.65;8.70;;;17.00;99.90;;;;;;5056604;28;20103;-26
2023/08/12 03:12:31;;;;;;;17.88;9.50;;;17.00;99.90;;;;;;5068712;28;20119;-26
2023/08/12 03:14:56;;;;;;;15.23;9.35;;;16.90;99.90;;;;;;5058910;28;20131;-26
2023/08/12 03:17:22;;;;;;;18.35;10.20;;;16.90;99.90;;;;;;5075671;28;20051;-26
2023/08/12 03:19:49;;;;;;;20.38;10.43;;;16.90;99.90;;;;;;5075654;28;20047;-26
2023/08/12 03:22:14;;;;;;;17.63;10.30;;;16.90;99.90;;;;;;5065166;28;20418;-26
2023/08/12 03:24:40;;;;;;;20.77;10.52;;;16.80;99.90;;;;;;5054815;28;20037;-26
2023/08/12 03:27:06;;;;;;;22.77;10.38;;;16.80;99.90;;;;;;5054485;28;20041;-26
2023/08/12 03:29:31;;;;;;;18.00;10.25;;;16.90;99.90;;;;;;5055428;28;20049;-26
2023/08/12 03:31:58;;;;;;;17.77;10.35;;;16.80;99.90;;;;;;5056720;28;20052;-24
2023/08/12 03:34:23;;;;;;;20.70;10.25;;;16.80;99.90;;;;;;5075252;28;20127;-26
2023/08/12 03:36:50;;;;;;;19.77;9.40;;;16.90;99.90;;;;;;5058464;28;20158;-26
2023/08/12 03:39:16;;;;;;;17.85;10.85;;;16.90;99.90;;;;;;5075478;28;20060;-26
2023/08/12 03:41:42;;;;;;;28.45;11.52;;;17.00;99.90;;;;;;5073971;28;20045;-26
2023/08/12 03:44:08;;;;;;;18.48;10.77;;;17.00;99.90;;;;;;5072367;28;20047;-26
2023/08/12 03:46:34;;;;;;;19.05;10.73;;;17.10;99.90;;;;;;5074426;28;20044;-24
2023/08/12 03:49:00;;;;;;;17.08;9.93;;;17.10;99.90;;;;;;5074443;28;20049;-26
2023/08/12 03:51:25;;;;;;;19.90;11.30;;;17.20;99.90;;;;;;5075012;28;20040;-26
2023/08/12 03:53:51;;;;;;;21.13;10.43;;;17.20;99.90;;;;;;5055588;28;20043;-27
2023/08/12 03:56:17;;;;;;;21.75;10.73;;;17.20;99.90;;;;;;5073920;28;20041;-26
2023/08/12 03:58:43;;;;;;;21.45;11.55;;;17.20;99.90;;;;;;5075619;28;20462;-26
2023/08/12 04:01:09;;;;;;;25.60;11.52;;;17.20;99.90;;;;;;5075332;28;20048;-26
2023/08/12 04:03:35;;;;;;;24.45;11.98;;;17.20;99.90;;;;;;5072117;28;20119;-24
2023/08/12 04:06:01;;;;;;;21.40;12.13;;;17.20;99.90;;;;;;5075449;28;20047;-26
2023/08/12 04:08:26;;;;;;;20.77;12.07;;;17.20;99.90;;;;;;5075482;28;20466;-26
2023/08/12 04:10:52;;;;;;;26.67;12.40;;;17.20;99.90;;;;;;5073425;28;20040;-26
2023/08/12 04:13:18;;;;;;;19.17;10.95;;;17.20;99.90;;;;;;5056709;28;20133;-26
2023/08/12 04:15:49;;;;;;;21.20;12.23;;;17.20;99.90;;;;;;5055839;28;20486;-25
2023/08/12 04:18:14;;;;;;;20.83;11.82;;;17.20;99.90;;;;;;5073533;28;20056;-26
2023/08/12 04:20:40;;;;;;;21.67;12.38;;;17.40;99.90;;;;;;5073157;28;20182;-25
2023/08/12 04:23:06;;;;;;;26.55;12.13;;;17.30;99.90;;;;;;5074355;28;20040;-26
2023/08/12 04:25:31;;;;;;;23.17;12.80;;;17.40;99.90;;;;;;5072625;28;20044;-26
2023/08/12 04:27:58;;;;;;;24.58;13.00;;;17.40;99.90;;;;;;5074253;28;20451;-26
2023/08/12 04:30:24;;;;;;;23.52;11.70;;;17.50;99.90;;;;;;5074236;28;20110;-26
2023/08/12 04:32:49;;;;;;;22.17;13.73;;;17.60;99.90;;;;;;5058124;28;20050;-26
2023/08/12 04:35:15;;;;;;;21.55;12.98;;;17.60;99.90;;;;;;5054100;28;20390;-26
2023/08/12 04:37:41;;;;;;;23.13;11.75;;;17.60;99.90;;;;;;5054405;28;20056;-26
2023/08/12 04:40:07;;;;;;;21.30;12.02;;;17.70;99.90;;;;;;5052968;28;20107;-26
2023/08/12 04:42:33;;;;;;;18.65;11.77;;;17.80;99.90;;;;;;5061775;28;20051;-26
2023/08/12 04:44:59;;;;;;;20.45;12.90;;;17.90;99.90;;;;;;5073945;28;20055;-26
2023/08/12 04:47:25;;;;;;;19.38;11.48;;;17.90;99.90;;;;;;5073890;28;20048;-26
2023/08/12 04:49:51;;;;;;;23.48;12.48;;;17.90;99.90;;;;;;5073677;28;20090;-26
2023/08/12 04:52:17;;;;;;;24.00;12.18;;;18.10;99.90;;;;;;5071530;28;20124;-24
2023/08/12 04:54:43;;;;;;;22.45;11.50;;;18.10;99.90;;;;;;5054685;28;20087;-26
2023/08/12 04:57:08;;;;;;;17.63;10.55;;;18.00;99.90;;;;;;5053781;28;20521;-26
2023/08/12 04:59:34;;;;;;;15.68;10.35;;;18.20;99.90;;;;;;5037077;28;20371;-26
2023/08/12 05:02:00;;;;;;;17.95;11.23;;;18.10;99.90;;;;;;5053773;28;20040;-26
2023/08/12 05:04:26;;;;;;;15.90;10.38;;;18.20;99.90;;;;;;5053926;28;20064;-26
2023/08/12 05:06:51;;;;;;;16.83;9.55;;;18.30;99.90;;;;;;5053741;28;20052;-26
2023/08/12 05:09:17;;;;;;;17.20;9.77;;;18.30;99.90;;;;;;5053672;28;20048;-26
2023/08/12 05:11:43;;;;;;;17.92;10.48;;;18.40;99.90;;;;;;5052518;28;20128;-26
2023/08/12 05:14:09;;;;;;;17.63;10.23;;;18.50;99.90;;;;;;5058692;28;20110;-26
2023/08/12 05:16:34;;;;;;;14.15;9.50;;;18.60;99.90;;;;;;5062383;28;20480;-26
2023/08/12 05:19:00;;;;;;;18.35;9.93;;;18.70;99.90;;;;;;5053590;28;20037;-26
2023/08/12 05:21:26;;;;;;;17.70;10.27;;;18.70;99.90;;;;;;5053587;28;20052;-26
2023/08/12 05:23:52;;;;;;;15.63;9.02;;;18.80;99.90;;;;;;5052978;28;20131;-26
2023/08/12 05:26:18;;;;;;;15.02;8.77;;;19.00;99.90;;;;;;5062957;28;20128;-27
2023/08/12 05:28:44;;;;;;;16.77;9.23;;;19.00;99.90;;;;;;5053464;28;20056;-26
2023/08/12 05:31:09;;;;;;;15.75;9.80;;;19.10;99.90;;;;;;5053747;28;20045;-26
2023/08/12 05:33:35;;;;;;;17.30;9.60;;;19.20;99.90;;;;;;5052282;28;20045;-26
2023/08/12 05:36:01;;;;;;;14.63;8.80;;;19.20;99.90;;;;;;5019041;28;20041;-26
2023/08/12 05:38:26;;;;;;;13.77;8.55;;;19.40;99.90;;;;;;5053421;28;20376;-26
2023/08/12 05:40:52;;;;;;;12.02;7.88;;;19.50;99.90;;;;;;5053385;28;20532;-26
2023/08/12 05:43:18;;;;;;;13.82;8.18;;;19.60;99.90;;;;;;5054146;28;20051;-26
2023/08/12 05:45:43;;;;;;;13.55;8.00;;;19.60;99.90;;;;;;5057851;28;20052;-26
2023/08/12 05:48:09;;;;;;;13.73;9.15;;;19.70;99.90;;;;;;5056934;28;20529;-27
2023/08/12 05:50:35;;;;;;;14.52;8.93;;;19.80;99.90;;;;;;5057817;28;20041;-26
2023/08/12 05:53:01;;;;;;;13.48;8.45;;;19.80;99.90;;;;;;5056245;28;20079;-26
2023/08/12 05:55:26;;;;;;;15.02;8.52;;;19.90;99.90;;;;;;5056737;28;20044;-25
2023/08/12 05:57:52;;;;;;;17.98;8.23;;;20.00;99.90;;;;;;5076895;28;20402;-26
2023/08/12 06:00:18;;;;;;;14.52;8.65;;;20.00;99.90;;;;;;5077648;28;20521;-27
2023/08/12 06:02:44;;;;;;;17.23;8.55;;;20.10;99.90;;;;;;5075836;28;20129;-27
2023/08/12 06:05:09;;;;;;;12.73;8.02;;;20.20;99.90;;;;;;5042458;28;20040;-26
2023/08/12 06:07:35;;;;;;;16.13;8.25;;;20.30;99.90;;;;;;5062429;28;20074;-27
2023/08/12 06:10:01;;;;;;;15.38;8.45;;;20.40;99.90;;;;;;5056930;28;20441;-27
2023/08/12 06:12:27;;;;;;;16.60;9.10;;;20.30;99.90;;;;;;5056927;28;20051;-27
2023/08/12 06:14:53;;;;;;;13.95;7.57;;;20.40;99.90;;;;;;5056834;28;20120;-26
2023/08/12 06:17:18;;;;;;;14.70;8.10;;;20.40;99.90;;;;;;5062323;28;20055;-27
2023/08/12 06:19:44;;;;;;;16.80;10.32;;;20.50;99.90;;;;;;5076566;28;20055;-27
2023/08/12 06:22:10;;;;;;;13.15;8.40;;;20.50;99.90;;;;;;5075518;28;20044;-27
2023/08/12 06:24:35;;;;;;;12.35;8.20;;;20.50;99.90;;;;;;5058814;28;20083;-27
2023/08/12 06:27:01;;;;;;;13.73;8.43;;;20.50;99.90;;;;;;5076201;28;20380;-25
2023/08/12 06:29:27;;;;;;;13.32;7.90;;;20.50;99.90;;;;;;5057587;28;20498;-26
2023/08/12 06:31:53;;;;;;;15.95;9.05;;;20.40;99.90;;;;;;5056337;28;20076;-26
2023/08/12 06:34:19;;;;;;;12.38;8.15;;;20.40;99.90;;;;;;5056362;28;20136;-27
2023/08/12 06:36:45;;;;;;;13.40;8.95;;;20.30;99.90;;;;;;5056129;28;20128;-26
2023/08/12 06:39:10;;;;;;;14.02;8.77;;;20.30;99.90;;;;;;5047211;28;20066;-26
2023/08/12 06:41:36;;;;;;;13.40;8.75;;;20.20;99.90;;;;;;5076936;28;20048;-27
2023/08/12 06:44:04;;;;;;;13.50;9.20;;;20.20;99.90;;;;;;5075199;28;20055;-26
2023/08/12 06:46:30;;;;;;;16.38;9.80;;;20.20;99.90;;;;;;5071323;28;20406;-27
2023/08/12 06:48:57;;;;;;;16.23;8.38;;;20.10;99.90;;;;;;5054547;28;20057;-27
2023/08/12 06:51:23;;;;;;;16.42;10.32;;;20.10;99.90;;;;;;5059597;28;20048;-28
2023/08/12 06:53:49;;;;;;;13.88;9.48;;;20.20;99.90;;;;;;5057844;28;20047;-28
2023/08/12 06:56:14;;;;;;;17.27;10.27;;;20.20;99.90;;;;;;5033689;28;20048;-25
2023/08/12 06:58:40;;;;;;;17.20;11.07;;;20.20;99.90;;;;;;5053392;28;20071;-27
2023/08/12 07:01:06;;;;;;;14.38;9.80;;;20.20;99.90;;;;;;5054841;28;20060;-26
2023/08/12 07:03:32;;;;;;;14.27;10.05;;;20.20;99.90;;;;;;5055931;28;20098;-26
2023/08/12 07:05:58;;;;;;;14.55;11.13;;;20.30;99.90;;;;;;5054618;28;20041;-27
2023/08/12 07:08:24;;;;;;;19.42;10.65;;;20.30;99.90;;;;;;5054887;28;20047;-27
2023/08/12 07:10:50;;;;;;;23.25;12.35;;;20.40;99.90;;;;;;5055784;28;20085;-27
2023/08/12 07:13:15;;;;;;;16.25;12.13;;;20.40;99.90;;;;;;5054800;28;20041;-27
2023/08/12 07:15:41;;;;;;;20.80;12.82;;;20.40;99.90;;;;;;5055562;28;20049;-27
2023/08/12 07:18:07;;;;;;;18.35;11.10;;;20.40;99.90;;;;;;5037986;28;20488;-26
2023/08/12 07:20:33;;;;;;;18.50;11.85;;;20.40;99.90;;;;;;5054492;28;20180;-26
2023/08/12 07:22:58;;;;;;;23.25;12.48;;;20.50;99.90;;;;;;5054365;28;20048;-27
2023/08/12 07:25:24;;;;;;;22.95;13.20;;;20.60;99.90;;;;;;5055453;28;20052;-27
2023/08/12 07:27:50;;;;;;;20.15;13.40;;;20.60;99.90;;;;;;5055520;28;20045;-26
2023/08/12 07:30:16;;;;;;;21.17;13.10;;;20.60;99.90;;;;;;5055333;28;20105;-27
2023/08/12 07:32:42;;;;;;;22.52;12.88;;;20.60;99.90;;;;;;5055385;28;20053;-26
2023/08/12 07:35:08;;;;;;;23.17;13.48;;;20.50;99.90;;;;;;5053998;28;20060;-26
2023/08/12 07:37:34;;;;;;;19.08;12.70;;;20.50;99.90;;;;;;5055235;28;20155;-27
2023/08/12 07:40:00;;;;;;;21.98;13.23;;;20.40;99.90;;;;;;5055282;28;20124;-27
2023/08/12 07:42:26;;;;;;;22.17;14.20;;;20.40;99.90;;;;;;5055134;28;20048;-27
2023/08/12 07:44:51;;;;;;;19.25;13.73;;;20.40;99.90;;;;;;5037317;28;20123;-27
2023/08/12 07:47:17;;;;;;;23.52;14.52;;;20.50;99.90;;;;;;5053801;28;20049;-25
2023/08/12 07:49:43;;;;;;;20.23;14.48;;;20.50;99.90;;;;;;5037539;28;20438;-26
2023/08/12 07:52:09;;;;;;;16.13;12.63;;;20.50;99.90;;;;;;5055002;28;20086;-27
2023/08/12 07:54:35;;;;;;;22.65;14.63;;;20.50;99.90;;;;;;5053213;28;20490;-25
2023/08/12 07:57:01;;;;;;;26.20;14.13;;;20.40;99.90;;;;;;5058200;28;20053;-27
2023/08/12 07:59:27;;;;;;;26.15;14.35;;;20.40;99.90;;;;;;5054750;28;20442;-26
2023/08/12 08:01:53;;;;;;;22.73;14.38;;;20.40;99.90;;;;;;5053716;28;20041;-27
2023/08/12 08:04:18;;;;;;;22.92;15.65;;;20.50;99.90;;;;;;5053541;28;20483;-27
2023/08/12 08:06:44;;;;;;;21.33;14.88;;;20.50;99.90;;;;;;5054710;28;20110;-27
2023/08/12 08:09:10;;;;;;;21.73;14.00;;;20.50;99.90;;;;;;5053156;28;20053;-27
2023/08/12 08:11:36;;;;;;;20.27;13.25;;;20.50;99.90;;;;;;5054644;28;20087;-26
2023/08/12 08:14:02;;;;;;;25.98;14.65;;;20.60;99.90;;;;;;5054549;28;20060;-26
2023/08/12 08:16:28;;;;;;;21.85;13.82;;;20.60;99.90;;;;;;5054379;28;20091;-27
2023/08/12 08:18:54;;;;;;;22.60;13.65;;;20.60;99.90;;;;;;5055127;28;20044;-27
2023/08/12 08:21:19;;;;;;;23.05;14.13;;;20.60;99.90;;;;;;5054625;28;20372;-27
2023/08/12 08:23:45;;;;;;;24.63;15.80;;;20.60;99.90;;;;;;5054857;28;20044;-27
2023/08/12 08:26:13;;;;;;;23.98;14.82;;;20.60;99.90;;;;;;5053114;28;20052;-26
2023/08/12 08:28:38;;;;;;;24.17;15.13;;;20.60;99.90;;;;;;5055152;28;20422;-26
2023/08/12 08:31:04;;;;;;;27.42;14.82;;;20.60;99.90;;;;;;5053718;28;20131;-27
2023/08/12 08:33:30;;;;;;;22.60;14.45;;;20.50;99.90;;;;;;5054312;28;20081;-26
2023/08/12 08:35:56;;;;;;;22.10;13.73;;;20.50;99.90;;;;;;5052871;28;20376;-26
2023/08/12 08:38:21;;;;;;;19.98;13.98;;;20.40;99.90;;;;;;5053219;28;20133;-27
2023/08/12 08:40:50;;;;;;;22.45;15.73;;;20.30;99.90;;;;;;5052550;28;20131;-26
2023/08/12 08:43:23;;;;;;;20.42;13.82;;;20.30;99.90;;;;;;5054587;28;20433;-25
2023/08/12 08:45:53;;;;;;;23.63;15.75;;;20.20;99.90;;;;;;5054578;28;20051;-25
2023/08/12 08:48:20;;;;;;;27.02;17.65;;;20.10;99.90;;;;;;5053807;28;20483;-24
2023/08/12 08:50:51;;;;;;;28.50;16.85;;;20.00;99.90;;;;;;5053611;28;20403;-24
2023/08/12 08:53:18;;;;;;;36.47;18.08;;;20.00;99.90;;;;;;5054260;28;20071;-24
2023/08/12 08:55:45;;;;;;;29.45;16.85;;;19.90;99.90;;;;;;5053882;28;20092;-23
2023/08/12 08:58:10;;;;;;;34.67;19.02;;;19.70;99.90;;;;;;5053883;28;20045;-23
2023/08/12 09:00:38;;;;;;;26.83;18.20;;;19.80;99.90;;;;;;5053820;28;20068;-24
2023/08/12 09:03:06;;;;;;;32.55;18.20;;;19.80;99.90;;;;;;5053765;28;20091;-24
2023/08/12 09:05:33;;;;;;;36.90;21.63;;;19.90;99.90;;;;;;5053006;28;20041;-24
2023/08/12 09:08:01;;;;;;;30.52;19.25;;;19.80;99.90;;;;;;5053289;28;20091;-24
2023/08/12 09:10:27;;;;;;;34.33;22.88;;;20.00;99.90;;;;;;5053688;28;20088;-24
2023/08/12 09:12:56;;;;;;;34.70;19.35;;;19.80;99.90;;;;;;5053652;28;20118;-24
2023/08/12 09:15:22;;;;;;;29.10;19.20;;;20.00;99.90;;;;;;5053639;28;20041;-24
2023/08/12 09:17:48;;;;;;;29.75;20.17;;;20.00;99.90;;;;;;5053844;28;20103;-25
2023/08/12 09:20:14;;;;;;;34.53;21.45;;;20.00;99.90;;;;;;5052795;28;20088;-24
2023/08/12 09:22:41;;;;;;;28.60;19.15;;;20.00;99.90;;;;;;5053569;28;20449;-24
2023/08/12 09:25:08;;;;;;;38.97;21.52;;;20.10;99.90;;;;;;5053755;28;20100;-24
2023/08/12 09:27:36;;;;;;;28.17;19.80;;;19.90;99.90;;;;;;5053452;28;20041;-24
2023/08/12 09:30:03;;;;;;;33.22;21.88;;;19.90;99.90;;;;;;5053994;28;20570;-24
2023/08/12 09:32:29;;;;;;;27.88;20.48;;;20.00;99.90;;;;;;5053462;28;20048;-24
2023/08/12 09:34:56;;;;;;;32.80;21.30;;;19.90;99.90;;;;;;5053387;28;20447;-24
2023/08/12 09:37:24;;;;;;;32.75;20.05;;;19.90;99.90;;;;;;5052498;28;20411;-24
2023/08/12 09:39:51;;;;;;;31.27;20.80;;;19.90;99.90;;;;;;5053363;28;20136;-24
2023/08/12 09:42:18;;;;;;;33.35;22.17;;;19.90;99.90;;;;;;5053389;28;20102;-24
2023/08/12 09:44:45;;;;;;;31.83;20.65;;;20.00;99.90;;;;;;5053311;28;20497;-24
2023/08/12 09:47:11;;;;;;;29.75;20.00;;;20.00;99.90;;;;;;5051956;28;20049;-24
2023/08/12 09:49:38;;;;;;;32.88;21.02;;;20.00;99.90;;;;;;5053170;28;20071;-24
2023/08/12 09:52:05;;;;;;;30.48;21.88;;;19.70;99.90;;;;;;5053822;28;20375;-24
2023/08/12 09:54:35;;;;;;;28.58;21.05;;;19.90;99.90;;;;;;5052142;28;20473;-24
2023/08/12 09:57:02;;;;;;;36.30;23.17;;;19.80;99.90;;;;;;5053261;28;20049;-24
2023/08/12 09:59:32;;;;;;;39.00;25.38;;;20.00;99.90;;;;;;5051963;28;20079;-24
2023/08/12 10:01:58;;;;;;;38.78;25.55;;;20.00;99.90;;;;;;5053152;28;20041;-23
2023/08/12 10:04:28;;;;;;;40.38;25.23;;;20.10;99.90;;;;;;5053131;28;20048;-23
2023/08/12 10:06:55;;;;;;;33.85;23.92;;;19.70;99.90;;;;;;5052495;28;20110;-23
2023/08/12 10:09:21;;;;;;;41.55;25.88;;;20.20;99.90;;;;;;5053074;28;20052;-23
2023/08/12 10:11:47;;;;;;;33.03;23.70;;;20.20;99.90;;;;;;5053099;28;20055;-23
2023/08/12 10:14:14;;;;;;;36.78;23.15;;;20.20;99.90;;;;;;5052492;28;20052;-23
2023/08/12 10:16:45;;;;;;;35.50;24.75;;;19.80;99.90;;;;;;5053608;28;20048;-23
2023/08/12 10:19:11;;;;;;;34.38;23.50;;;20.00;99.90;;;;;;5052104;28;20093;-22
2023/08/12 10:21:38;;;;;;;35.45;24.08;;;20.10;99.90;;;;;;5053080;28;20444;-22
2023/08/12 10:24:06;;;;;;;34.10;22.40;;;20.20;99.90;;;;;;5053525;28;20049;-22
2023/08/12 10:26:32;;;;;;;32.00;22.90;;;20.10;99.90;;;;;;5052897;28;20045;-22
2023/08/12 10:28:59;;;;;;;32.92;24.30;;;20.00;99.90;;;;;;5052989;28;20052;-22
2023/08/12 10:31:28;;;;;;;31.23;22.08;;;20.30;99.90;;;;;;5053630;28;20053;-22
2023/08/12 10:33:54;;;;;;;29.45;20.77;;;20.40;99.90;;;;;;5056806;28;20053;-22
2023/08/12 10:36:21;;;;;;;24.83;19.33;;;20.00;99.90;;;;;;5055516;28;20048;-22
2023/08/12 10:38:47;;;;;;;26.90;19.05;;;20.00;99.90;;;;;;5056449;28;20051;-23
2023/08/12 10:41:21;;;;;;;30.65;21.27;;;20.40;99.90;;;;;;5055407;28;20045;-23
2023/08/12 10:43:55;;;;;;;23.65;18.48;;;20.50;99.90;;;;;;5057013;28;20049;-23
2023/08/12 10:46:22;;;;;;;24.67;19.00;;;20.50;99.90;;;;;;5056215;28;20048;-23
2023/08/12 10:49:21;;;;;;;25.65;19.98;;;20.90;99.90;;;;;;5056268;28;20114;-22
2023/08/12 10:51:52;;;;;;;17.15;13.10;;;20.40;99.90;;;;;;5051683;28;20491;-22
2023/08/12 10:54:26;;;;;;;13.13;10.23;;;20.80;99.90;;;;;;5056159;28;20414;-23
2023/08/12 10:57:14;;;;;;;14.90;10.18;;;20.60;99.90;;;;;;5056141;28;20055;-23
2023/08/12 10:59:46;;;;;;;8.85;7.13;;;20.70;99.90;;;;;;5055987;28;20095;-23
2023/08/12 11:02:18;;;;;;;11.02;7.75;;;20.30;99.90;;;;;;5055073;28;20088;-23
2023/08/12 11:04:44;;;;;;;9.10;7.70;;;20.60;99.90;;;;;;5055574;28;20445;-23
2023/08/12 11:07:20;;;;;;;9.88;7.88;;;20.70;99.90;;;;;;5054937;28;20057;-23
2023/08/12 11:09:52;;;;;;;7.55;6.35;;;21.00;99.90;;;;;;5056460;28;20056;-23
2023/08/12 11:12:18;;;;;;;7.20;6.20;;;21.10;99.90;;;;;;5056415;28;20045;-23
2023/08/12 11:15:04;;;;;;;8.32;7.03;;;20.80;99.90;;;;;;5055357;28;20189;-23
2023/08/12 11:17:34;;;;;;;6.60;5.85;;;20.90;99.90;;;;;;5055035;28;20110;-23
2023/08/12 11:20:00;;;;;;;6.28;5.53;;;20.70;99.90;;;;;;5055894;28;20088;-23
2023/08/12 11:22:26;;;;;;;9.05;5.78;;;20.70;99.90;;;;;;5054480;28;20051;-23
2023/08/12 11:24:53;;;;;;;9.40;6.47;;;20.80;99.90;;;;;;5055768;28;20453;-23
2023/08/12 11:27:19;;;;;;;8.65;5.68;;;20.70;99.90;;;;;;5055537;28;20091;-23
2023/08/12 11:29:45;;;;;;;7.85;4.68;;;20.80;99.90;;;;;;5055512;28;20049;-23
2023/08/12 11:32:11;;;;;;;5.25;2.97;;;20.50;99.90;;;;;;5056006;28;20048;-23
2023/08/12 11:34:37;;;;;;;5.15;2.63;;;19.60;99.90;;;;;;5055320;28;20053;-23
2023/08/12 11:37:03;;;;;;;6.68;3.08;;;19.00;99.90;;;;;;5055644;28;20052;-23
2023/08/12 11:39:29;;;;;;;6.38;2.10;;;18.70;99.90;;;;;;5055541;28;20063;-23
2023/08/12 11:41:57;;;;;;;4.65;1.98;;;18.20;99.90;;;;;;5055202;28;20049;-22
2023/08/12 11:44:23;;;;;;;6.68;3.00;;;18.10;99.90;;;;;;5053552;28;20390;-22
2023/08/12 11:46:52;;;;;;;7.03;3.53;;;17.90;99.90;;;;;;5055100;28;20049;-20
2023/08/12 11:49:18;;;;;;;7.20;3.40;;;17.90;99.90;;;;;;5055178;28;20088;-20
2023/08/12 11:51:46;;;;;;;5.22;2.70;;;17.70;99.90;;;;;;5054054;28;20124;-20
2023/08/12 11:54:12;;;;;;;6.45;2.22;;;17.40;99.90;;;;;;5055780;28;20128;-20
2023/08/12 11:56:38;;;;;;;5.47;2.03;;;17.30;99.90;;;;;;5054214;28;20534;-20
2023/08/12 11:59:05;;;;;;;12.85;2.75;;;17.30;99.90;;;;;;5053705;28;20151;-20
2023/08/12 12:01:31;;;;;;;34.97;5.95;;;17.60;99.90;;;;;;5037264;28;20103;-19
2023/08/12 12:04:00;;;;;;;8.60;2.40;;;17.60;99.90;;;;;;5054776;28;20137;-19
2023/08/12 12:06:36;;;;;;;8.07;2.17;;;17.30;99.90;;;;;;5054746;28;20049;-20
2023/08/12 12:09:09;;;;;;;7.03;2.10;;;17.50;99.90;;;;;;5054376;28;20055;-20
2023/08/12 12:11:38;;;;;;;6.30;1.98;;;17.70;99.90;;;;;;5037798;28;20049;-20
2023/08/12 12:14:05;;;;;;;10.70;3.28;;;17.60;99.90;;;;;;5054657;28;20044;-21
2023/08/12 12:16:46;;;;;;;10.57;3.05;;;18.10;99.90;;;;;;5054890;28;20060;-21
2023/08/12 12:19:19;;;;;;;12.23;3.03;;;18.30;99.90;;;;;;5053307;28;20135;-21
2023/08/12 12:21:50;;;;;;;8.10;3.05;;;17.90;99.90;;;;;;5055168;28;20123;-21
2023/08/12 12:24:17;;;;;;;11.52;2.90;;;18.30;99.90;;;;;;5054514;28;20049;-22
2023/08/12 12:26:44;;;;;;;6.45;1.95;;;18.70;99.90;;;;;;5054327;28;20041;-22
2023/08/12 12:29:13;;;;;;;7.57;1.92;;;18.70;99.90;;;;;;5053159;28;20102;-23
2023/08/12 12:31:41;;;;;;;6.68;2.38;;;18.90;99.90;;;;;;5054286;28;20053;-23